createdAt,value
2022-12-11T00:00:26.745Z,50.22
2022-12-11T00:02:53.969Z,52.35
2022-12-11T00:05:21.355Z,52.28
2022-12-11T00:07:48.859Z,50.53
2022-12-11T00:10:16.243Z,50.85
2022-12-11T00:12:43.515Z,51.90
2022-12-11T00:15:11.623Z,49.30
2022-12-11T00:17:39.106Z,51.67
2022-12-11T00:20:07.986Z,49.33
2022-12-11T00:22:36.394Z,51.15
2022-12-11T00:25:03.878Z,49.00
2022-12-11T00:27:31.651Z,48.50
2022-12-11T00:29:58.919Z,48.15
2022-12-11T00:32:28.442Z,47.55
2022-12-11T00:34:56.017Z,47.20
2022-12-11T00:37:23.343Z,46.42
2022-12-11T00:39:50.746Z,46.58
2022-12-11T00:42:18.003Z,46.22
2022-12-11T00:44:45.199Z,43.20
2022-12-11T00:47:12.734Z,42.97
2022-12-11T00:49:42.838Z,43.15
2022-12-11T00:52:12.390Z,40.63
2022-12-11T00:54:39.719Z,42.65
2022-12-11T00:57:06.944Z,41.03
2022-12-11T00:59:36.257Z,38.53
2022-12-11T01:02:03.574Z,38.30
2022-12-11T01:04:30.861Z,41.08
2022-12-11T01:06:58.120Z,39.88
2022-12-11T01:09:44.129Z,39.50
2022-12-11T01:12:11.395Z,39.10
2022-12-11T01:14:38.676Z,38.15
2022-12-11T01:17:05.972Z,38.72
2022-12-11T01:19:33.342Z,39.00
2022-12-11T01:22:00.655Z,41.55
2022-12-11T01:24:27.933Z,39.08
2022-12-11T01:26:55.165Z,42.28
2022-12-11T01:29:22.458Z,40.63
2022-12-11T01:31:49.705Z,38.97
2022-12-11T01:34:16.967Z,38.15
2022-12-11T01:36:44.197Z,40.42
2022-12-11T01:39:11.443Z,39.75
2022-12-11T01:41:38.792Z,39.75
2022-12-11T01:44:07.274Z,37.47
2022-12-11T01:46:35.958Z,37.95
2022-12-11T01:49:06.446Z,36.95
2022-12-11T01:51:37.045Z,36.95
2022-12-11T01:54:09.096Z,37.30
2022-12-11T01:56:37.465Z,35.25
2022-12-11T01:59:07.526Z,33.92
2022-12-11T02:01:51.193Z,32.80
2022-12-11T02:04:19.396Z,32.72
2022-12-11T02:06:48.991Z,32.40
2022-12-11T02:09:25.547Z,30.45
2022-12-11T02:12:10.976Z,30.63
2022-12-11T02:14:43.284Z,29.38
2022-12-11T02:17:34.823Z,31.60
2022-12-11T02:20:11.661Z,30.10
2022-12-11T02:22:53.928Z,30.63
2022-12-11T02:25:40.598Z,30.92
2022-12-11T02:28:38.712Z,31.80
2022-12-11T02:31:24.362Z,32.30
2022-12-11T02:34:05.171Z,36.90
2022-12-11T02:36:36.749Z,35.83
2022-12-11T02:39:05.370Z,35.85
2022-12-11T02:41:33.607Z,36.38
2022-12-11T02:44:02.925Z,37.33
2022-12-11T02:46:30.717Z,36.70
2022-12-11T02:48:58.699Z,34.03
2022-12-11T02:51:32.622Z,33.40
2022-12-11T02:54:00.367Z,33.03
2022-12-11T02:56:34.655Z,35.63
2022-12-11T02:59:07.254Z,34.33
2022-12-11T03:01:34.727Z,37.70
2022-12-11T03:04:02.473Z,37.85
2022-12-11T03:06:36.596Z,38.78
2022-12-11T03:09:05.509Z,38.45
2022-12-11T03:11:32.766Z,38.45
2022-12-11T03:14:02.871Z,39.92
2022-12-11T03:16:32.952Z,39.95
2022-12-11T03:19:13.069Z,39.25
2022-12-11T03:21:53.921Z,39.85
2022-12-11T03:24:27.128Z,38.20
2022-12-11T03:27:02.191Z,37.53
2022-12-11T03:29:41.261Z,38.10
2022-12-11T03:32:14.966Z,38.88
2022-12-11T03:34:54.537Z,38.70
2022-12-11T03:39:58.280Z,36.30
2022-12-11T03:42:25.993Z,36.83
2022-12-11T03:44:55.432Z,38.47
2022-12-11T03:47:24.974Z,38.00
2022-12-11T03:49:53.029Z,37.80
2022-12-11T03:52:20.830Z,37.70
2022-12-11T03:54:50.776Z,38.15
2022-12-11T03:57:22.020Z,39.33
2022-12-11T03:59:49.604Z,37.38
2022-12-11T04:02:16.900Z,36.13
2022-12-11T04:04:44.261Z,35.55
2022-12-11T04:07:11.559Z,36.58
2022-12-11T04:09:38.839Z,35.80
2022-12-11T04:12:06.174Z,34.63
2022-12-11T04:14:51.897Z,33.40
2022-12-11T04:17:45.341Z,31.35
2022-12-11T04:20:31.379Z,31.70
2022-12-11T04:23:19.502Z,27.30
2022-12-11T04:25:46.815Z,31.33
2022-12-11T04:28:14.038Z,35.92
2022-12-11T04:30:41.633Z,36.33
2022-12-11T04:33:09.111Z,34.33
2022-12-11T04:35:36.963Z,32.70
2022-12-11T04:38:04.429Z,31.08
2022-12-11T04:40:31.730Z,27.88
2022-12-11T04:42:59.058Z,28.67
2022-12-11T04:45:26.324Z,26.25
2022-12-11T04:47:53.626Z,25.83
2022-12-11T04:50:20.928Z,30.67
2022-12-11T04:52:48.210Z,32.63
2022-12-11T04:55:15.427Z,33.47
2022-12-11T04:57:42.667Z,35.72
2022-12-11T05:00:11.977Z,34.72
2022-12-11T05:02:40.528Z,35.63
2022-12-11T05:05:09.916Z,34.88
2022-12-11T05:07:37.950Z,36.38
2022-12-11T05:10:06.216Z,36.40
2022-12-11T05:12:35.257Z,36.47
2022-12-11T05:15:02.668Z,36.20
2022-12-11T05:17:29.921Z,37.75
2022-12-11T05:19:57.183Z,37.60
2022-12-11T05:22:24.417Z,36.45
2022-12-11T05:24:51.687Z,36.70
2022-12-11T05:27:18.929Z,34.22
2022-12-11T05:29:46.219Z,34.97
2022-12-11T05:32:13.504Z,35.92
2022-12-11T05:34:41.071Z,34.78
2022-12-11T05:37:08.810Z,35.40
2022-12-11T05:39:36.115Z,35.28
2022-12-11T05:42:03.502Z,36.15
2022-12-11T05:44:30.765Z,33.70
2022-12-11T05:46:58.030Z,34.00
2022-12-11T05:49:30.656Z,33.95
2022-12-11T05:51:58.342Z,34.15
2022-12-11T05:54:25.700Z,33.83
2022-12-11T05:56:52.949Z,32.67
2022-12-11T05:59:20.414Z,32.53
2022-12-11T06:01:47.760Z,30.48
2022-12-11T06:04:15.476Z,31.60
2022-12-11T06:06:43.899Z,30.50
2022-12-11T06:09:15.541Z,31.65
2022-12-11T06:11:43.018Z,30.85
2022-12-11T06:14:11.614Z,32.35
2022-12-11T06:16:38.901Z,32.85
2022-12-11T06:19:06.286Z,31.13
2022-12-11T06:21:34.074Z,33.17
2022-12-11T06:24:03.385Z,32.78
2022-12-11T06:26:32.075Z,34.22
2022-12-11T06:28:59.491Z,32.05
2022-12-11T06:31:26.875Z,33.28
2022-12-11T06:33:54.416Z,33.72
2022-12-11T06:36:23.026Z,33.38
2022-12-11T06:38:50.749Z,33.70
2022-12-11T06:41:18.695Z,35.55
2022-12-11T06:43:46.162Z,35.05
2022-12-11T06:46:16.012Z,35.90
2022-12-11T06:48:43.874Z,36.70
2022-12-11T06:51:13.882Z,38.55
2022-12-11T06:53:41.893Z,37.72
2022-12-11T06:56:14.785Z,38.85
2022-12-11T07:01:20.407Z,38.38
2022-12-11T07:03:48.019Z,37.80
2022-12-11T07:06:15.690Z,34.50
2022-12-11T07:08:43.628Z,33.05
2022-12-11T07:11:14.166Z,33.40
2022-12-11T07:13:44.789Z,32.22
2022-12-11T07:16:13.981Z,34.35
2022-12-11T07:18:43.866Z,30.98
2022-12-11T07:21:12.900Z,31.30
2022-12-11T07:23:40.499Z,30.13
2022-12-11T07:26:13.184Z,30.10
2022-12-11T07:28:40.923Z,30.58
2022-12-11T07:31:10.021Z,30.48
2022-12-11T07:33:37.514Z,31.85
2022-12-11T07:36:06.942Z,33.80
2022-12-11T07:38:34.447Z,34.75
2022-12-11T07:41:13.973Z,33.42
2022-12-11T07:43:41.953Z,30.70
2022-12-11T07:46:18.611Z,32.15
2022-12-11T07:48:47.243Z,33.13
2022-12-11T07:51:26.686Z,31.58
2022-12-11T07:53:58.733Z,32.35
2022-12-11T07:56:26.989Z,34.75
2022-12-11T07:58:54.443Z,34.92
2022-12-11T08:01:24.101Z,34.83
2022-12-11T08:03:52.080Z,34.08
2022-12-11T08:06:21.384Z,33.08
2022-12-11T08:08:48.641Z,34.33
2022-12-11T08:11:16.182Z,32.42
2022-12-11T08:13:44.890Z,32.22
2022-12-11T08:16:14.579Z,33.47
2022-12-11T08:18:42.361Z,33.13
2022-12-11T08:21:15.706Z,32.15
2022-12-11T08:23:43.445Z,31.35
2022-12-11T08:26:16.849Z,32.17
2022-12-11T08:28:44.646Z,32.22
2022-12-11T08:31:17.214Z,31.77
2022-12-11T08:33:45.648Z,31.60
2022-12-11T08:36:15.740Z,33.75
2022-12-11T08:38:43.213Z,31.27
2022-12-11T08:41:18.702Z,31.13
2022-12-11T08:43:46.771Z,31.00
2022-12-11T08:46:14.266Z,31.90
2022-12-11T08:48:42.554Z,30.05
2022-12-11T08:51:13.383Z,31.17
2022-12-11T08:53:41.029Z,30.08
2022-12-11T08:56:10.702Z,30.30
2022-12-11T08:58:38.360Z,32.28
2022-12-11T09:01:12.812Z,30.42
2022-12-11T09:03:40.677Z,29.90
2022-12-11T09:06:10.140Z,31.10
2022-12-11T09:08:40.113Z,30.77
2022-12-11T09:11:09.719Z,29.83
2022-12-11T09:13:39.927Z,30.45
2022-12-11T09:16:13.613Z,30.83
2022-12-11T09:18:41.556Z,32.75
2022-12-11T09:21:13.472Z,30.38
2022-12-11T09:23:41.436Z,30.03
2022-12-11T09:26:13.151Z,31.08
2022-12-11T09:28:45.940Z,30.70
2022-12-11T09:31:16.640Z,29.35
2022-12-11T09:33:44.093Z,30.15
2022-12-11T09:36:12.062Z,30.45
2022-12-11T09:38:39.468Z,30.38
2022-12-11T09:41:21.891Z,30.45
2022-12-11T09:44:13.846Z,31.25
2022-12-11T09:46:41.588Z,30.20
2022-12-11T09:49:40.372Z,32.40
2022-12-11T09:52:19.155Z,30.67
2022-12-11T09:54:58.255Z,30.73
2022-12-11T09:57:28.641Z,31.08
2022-12-11T10:00:17.126Z,32.50
2022-12-11T10:02:58.228Z,30.85
2022-12-11T10:05:37.330Z,33.83
2022-12-11T10:08:14.923Z,31.88
2022-12-11T10:10:47.335Z,32.58
2022-12-11T10:13:34.936Z,34.92
2022-12-11T10:16:10.484Z,35.25
2022-12-11T10:18:38.084Z,33.65
2022-12-11T10:21:05.603Z,35.78
2022-12-11T10:23:46.506Z,34.92
2022-12-11T10:26:24.233Z,35.40
2022-12-11T10:28:52.070Z,35.70
2022-12-11T10:31:20.245Z,36.47
2022-12-11T10:33:50.667Z,36.50
2022-12-11T10:36:23.398Z,38.42
2022-12-11T10:38:50.669Z,35.70
2022-12-11T10:41:24.622Z,37.15
2022-12-11T10:43:54.975Z,36.25
2022-12-11T10:46:32.938Z,37.75
2022-12-11T10:49:01.423Z,37.20
2022-12-11T10:51:31.534Z,37.15
2022-12-11T10:54:20.603Z,37.97
2022-12-11T10:56:49.139Z,37.22
2022-12-11T10:59:40.293Z,36.97
2022-12-11T11:02:19.700Z,38.30
2022-12-11T11:04:47.386Z,36.85
2022-12-11T11:07:21.348Z,37.72
2022-12-11T11:09:49.314Z,35.97
2022-12-11T11:12:23.270Z,37.50
2022-12-11T11:15:22.852Z,35.58
2022-12-11T11:17:55.823Z,36.08
2022-12-11T11:20:29.262Z,37.33
2022-12-11T11:23:02.003Z,36.83
2022-12-11T11:25:32.636Z,38.65
2022-12-11T11:28:05.364Z,35.83
2022-12-11T11:30:41.571Z,36.00
2022-12-11T11:33:18.241Z,37.20
2022-12-11T11:36:20.313Z,37.25
2022-12-11T11:38:58.892Z,35.88
2022-12-11T11:41:35.949Z,36.55
2022-12-11T11:44:05.742Z,36.63
2022-12-11T11:46:43.356Z,37.72
2022-12-11T11:49:19.196Z,36.65
2022-12-11T11:51:55.199Z,37.17
2022-12-11T11:54:33.574Z,36.53
2022-12-11T11:57:17.113Z,34.70
2022-12-11T11:59:54.955Z,36.13
2022-12-11T12:02:25.466Z,35.80
2022-12-11T12:04:53.212Z,37.13
2022-12-11T12:07:26.444Z,36.30
2022-12-11T12:10:22.636Z,33.40
2022-12-11T12:13:18.779Z,34.97
2022-12-11T12:16:00.649Z,33.58
2022-12-11T12:18:46.682Z,35.10
2022-12-11T12:21:32.294Z,35.45
2022-12-11T12:24:33.879Z,34.30
2022-12-11T12:27:51.526Z,34.05
2022-12-11T12:30:22.346Z,34.50
2022-12-11T12:33:35.868Z,32.55
2022-12-11T12:36:32.036Z,31.90
2022-12-11T12:39:15.152Z,33.85
2022-12-11T12:44:18.219Z,33.53
2022-12-11T12:47:04.572Z,34.38
2022-12-11T12:49:36.171Z,34.53
2022-12-11T12:52:05.144Z,33.75
2022-12-11T12:54:35.555Z,34.30
2022-12-11T12:57:03.359Z,37.42
2022-12-11T12:59:58.271Z,35.63
2022-12-11T13:02:26.769Z,34.65
2022-12-11T13:05:00.759Z,35.78
2022-12-11T13:07:31.853Z,34.65
2022-12-11T13:10:06.894Z,35.40
2022-12-11T13:12:42.684Z,32.58
2022-12-11T13:15:44.029Z,35.20
2022-12-11T13:18:35.039Z,34.78
2022-12-11T13:21:25.348Z,34.22
2022-12-11T13:23:53.082Z,32.78
2022-12-11T13:26:31.282Z,33.55
2022-12-11T13:28:58.779Z,33.78
2022-12-11T13:31:35.084Z,33.00
2022-12-11T13:34:18.451Z,30.73
2022-12-11T13:36:51.213Z,31.77
2022-12-11T13:39:34.264Z,30.90
2022-12-11T13:44:33.511Z,29.10
2022-12-11T13:47:03.229Z,30.63
2022-12-11T13:49:36.213Z,30.08
2022-12-11T13:54:38.992Z,32.83
2022-12-11T13:57:09.201Z,30.08
2022-12-11T13:59:38.905Z,28.58
2022-12-11T14:02:16.190Z,30.02
2022-12-11T14:04:46.786Z,29.70
2022-12-11T14:07:16.376Z,30.40
2022-12-11T14:09:51.670Z,30.67
2022-12-11T14:12:21.271Z,28.80
2022-12-11T14:14:52.161Z,30.30
2022-12-11T14:17:30.589Z,28.85
2022-12-11T14:20:07.906Z,28.33
2022-12-11T14:22:35.518Z,29.45
2022-12-11T14:25:17.249Z,27.40
2022-12-11T14:27:50.214Z,27.13
2022-12-11T14:30:36.480Z,27.05
2022-12-11T14:33:05.721Z,26.83
2022-12-11T14:35:58.498Z,27.65
2022-12-11T14:38:48.378Z,26.30
2022-12-11T14:41:27.560Z,26.58
2022-12-11T14:44:07.943Z,27.38
2022-12-11T14:47:01.074Z,27.08
2022-12-11T14:52:45.659Z,26.85
2022-12-11T14:55:31.695Z,26.48
2022-12-11T14:58:03.274Z,27.35
2022-12-11T15:00:37.783Z,26.15
2022-12-11T15:03:08.100Z,26.17
2022-12-11T15:05:40.782Z,26.17
2022-12-11T15:08:13.273Z,26.65
2022-12-11T15:24:07.141Z,26.50
2022-12-11T15:29:59.692Z,26.58
2022-12-11T15:32:27.044Z,26.52
2022-12-11T15:34:56.854Z,26.92
2022-12-11T15:40:01.834Z,25.63
2022-12-11T15:42:45.549Z,26.73
2022-12-11T15:45:39.315Z,25.90
2022-12-11T15:48:08.149Z,23.42
2022-12-11T15:50:37.123Z,23.92
2022-12-11T15:53:04.728Z,25.33
2022-12-11T15:55:34.971Z,25.35
2022-12-11T15:58:14.540Z,23.85
2022-12-11T16:00:42.375Z,25.70
2022-12-11T16:03:13.368Z,26.83
2022-12-11T16:05:41.830Z,26.52
2022-12-11T16:08:15.224Z,27.08
2022-12-11T16:10:47.251Z,26.67
2022-12-11T16:13:18.177Z,26.37
2022-12-11T16:15:47.211Z,27.92
2022-12-11T16:18:23.492Z,27.73
2022-12-11T16:20:51.942Z,28.55
2022-12-11T16:23:21.791Z,27.90
2022-12-11T16:25:49.362Z,27.30
2022-12-11T16:28:22.526Z,26.83
2022-12-11T16:30:50.042Z,27.88
2022-12-11T16:33:17.613Z,27.40
2022-12-11T16:35:45.339Z,26.83
2022-12-11T16:38:13.629Z,28.13
2022-12-11T16:40:41.576Z,28.40
2022-12-11T16:43:08.812Z,28.00
2022-12-11T16:45:36.631Z,27.77
2022-12-11T16:48:04.768Z,28.17
2022-12-11T16:50:32.471Z,27.65
2022-12-11T16:52:59.903Z,27.95
2022-12-11T16:55:27.192Z,28.42
2022-12-11T16:57:55.234Z,27.65
2022-12-11T17:00:22.785Z,26.92
2022-12-11T17:02:50.102Z,27.17
2022-12-11T17:05:17.565Z,26.30
2022-12-11T17:07:44.928Z,26.52
2022-12-11T17:10:12.564Z,26.58
2022-12-11T17:12:39.844Z,26.98
2022-12-11T17:15:07.612Z,26.85
2022-12-11T17:17:35.539Z,25.27
2022-12-11T17:20:03.062Z,26.23
2022-12-11T17:22:30.365Z,25.17
2022-12-11T17:24:57.833Z,24.20
2022-12-11T17:27:25.150Z,23.65
2022-12-11T17:29:52.903Z,24.30
2022-12-11T17:32:20.660Z,25.30
2022-12-11T17:34:50.498Z,24.17
2022-12-11T17:37:18.717Z,25.48
2022-12-11T17:39:47.513Z,26.17
2022-12-11T17:42:14.831Z,27.13
2022-12-11T17:44:42.326Z,28.10
2022-12-11T17:47:12.067Z,27.10
2022-12-11T17:49:42.346Z,27.58
2022-12-11T17:54:46.107Z,27.88
2022-12-11T17:57:13.357Z,27.30
2022-12-11T17:59:40.573Z,28.67
2022-12-11T18:02:08.851Z,27.08
2022-12-11T18:07:12.145Z,27.92
2022-12-11T18:09:42.459Z,26.85
2022-12-11T18:12:10.349Z,26.38
2022-12-11T18:14:38.267Z,26.35
2022-12-11T18:17:06.174Z,25.73
2022-12-11T18:19:34.762Z,27.35
2022-12-11T18:22:02.054Z,25.63
2022-12-11T18:24:31.854Z,26.38
2022-12-11T18:27:00.206Z,26.42
2022-12-11T18:29:27.527Z,25.77
2022-12-11T18:31:54.995Z,27.42
2022-12-11T18:34:22.358Z,27.83
2022-12-11T18:36:49.613Z,25.00
2022-12-11T18:39:16.998Z,26.30
2022-12-11T18:41:45.625Z,25.15
2022-12-11T18:44:22.560Z,26.33
2022-12-11T18:46:50.397Z,25.35
2022-12-11T18:49:17.882Z,25.83
2022-12-11T18:51:45.170Z,25.70
2022-12-11T18:54:14.855Z,25.67
2022-12-11T18:56:42.192Z,27.45
2022-12-11T18:59:13.569Z,25.73
2022-12-11T19:01:40.938Z,25.98
2022-12-11T19:04:10.933Z,25.88
2022-12-11T19:06:38.698Z,26.35
2022-12-11T19:09:07.279Z,25.98
2022-12-11T19:11:36.181Z,25.55
2022-12-11T19:14:05.816Z,25.27
2022-12-11T19:16:38.813Z,27.00
2022-12-11T19:19:09.952Z,26.10
2022-12-11T19:21:38.527Z,26.00
2022-12-11T19:24:07.024Z,26.95
2022-12-11T19:26:35.525Z,27.60
2022-12-11T19:29:03.132Z,25.42
2022-12-11T19:31:32.188Z,27.33
2022-12-11T19:34:00.039Z,26.85
2022-12-11T19:36:28.434Z,27.58
2022-12-11T19:39:01.176Z,27.10
2022-12-11T19:41:30.170Z,26.35
2022-12-11T19:43:59.191Z,25.83
2022-12-11T19:46:27.031Z,26.27
2022-12-11T19:48:55.921Z,27.38
2022-12-11T19:51:35.186Z,26.17
2022-12-11T19:54:02.992Z,25.20
2022-12-11T19:56:30.815Z,27.05
2022-12-11T19:59:01.145Z,27.45
2022-12-11T20:01:31.179Z,27.33
2022-12-11T20:04:01.104Z,27.77
2022-12-11T20:06:33.907Z,27.20
2022-12-11T20:11:31.343Z,29.48
2022-12-11T20:13:58.738Z,28.05
2022-12-11T20:17:22.822Z,28.42
2022-12-11T20:20:22.169Z,30.17
2022-12-11T20:22:57.942Z,28.60
2022-12-11T20:25:28.096Z,29.15
2022-12-11T20:27:59.205Z,28.30
2022-12-11T20:30:27.919Z,29.13
2022-12-11T20:32:56.432Z,27.80
2022-12-11T20:35:26.435Z,26.80
2022-12-11T20:37:55.521Z,27.58
2022-12-11T20:40:23.423Z,27.80
2022-12-11T20:42:52.130Z,27.83
2022-12-11T20:45:20.297Z,27.15
2022-12-11T20:47:50.741Z,27.60
2022-12-11T20:50:18.158Z,28.45
2022-12-11T20:52:45.579Z,28.52
2022-12-11T20:55:13.395Z,28.08
2022-12-11T20:57:45.259Z,28.35
2022-12-11T21:00:20.046Z,28.67
2022-12-11T21:02:49.592Z,27.23
2022-12-11T21:05:17.050Z,26.95
2022-12-11T21:07:44.753Z,27.85
2022-12-11T21:10:13.271Z,27.10
2022-12-11T21:12:40.664Z,26.73
2022-12-11T21:15:08.555Z,28.10
2022-12-11T21:17:36.021Z,28.88
2022-12-11T21:20:03.643Z,27.33
2022-12-11T21:22:30.950Z,27.17
2022-12-11T21:24:58.259Z,26.95
2022-12-11T21:27:25.578Z,27.27
2022-12-11T21:29:52.834Z,26.50
2022-12-11T21:32:20.620Z,25.58
2022-12-11T21:34:47.821Z,27.23
2022-12-11T21:37:15.116Z,26.08
2022-12-11T21:39:42.425Z,25.25
2022-12-11T21:42:09.715Z,24.95
2022-12-11T21:47:24.659Z,25.67
2022-12-11T21:49:52.178Z,25.25
2022-12-11T21:52:19.746Z,25.65
2022-12-11T21:54:47.022Z,26.60
2022-12-11T21:57:14.334Z,26.13
2022-12-11T21:59:41.639Z,25.42
2022-12-11T22:02:11.324Z,25.48
2022-12-11T22:04:39.065Z,25.08
2022-12-11T22:07:06.343Z,24.55
2022-12-11T22:09:33.699Z,26.35
2022-12-11T22:12:00.954Z,26.20
2022-12-11T22:14:30.943Z,25.00
2022-12-11T22:17:02.071Z,25.23
2022-12-11T22:19:32.676Z,25.35
2022-12-11T22:22:00.357Z,24.88
2022-12-11T22:24:27.980Z,25.17
2022-12-11T22:26:55.456Z,26.52
2022-12-11T22:29:22.746Z,26.70
2022-12-11T22:31:50.257Z,25.27
2022-12-11T22:34:17.482Z,25.08
2022-12-11T22:36:44.867Z,25.08
2022-12-11T22:39:12.144Z,24.85
2022-12-11T22:41:42.327Z,25.15
2022-12-11T22:44:20.283Z,25.65
2022-12-11T22:46:50.235Z,24.92
2022-12-11T22:49:19.033Z,25.30
2022-12-11T22:51:46.336Z,25.35
2022-12-11T22:54:13.564Z,24.75
2022-12-11T22:56:40.851Z,25.45
2022-12-11T22:59:09.241Z,26.00
2022-12-11T23:01:36.732Z,25.90
2022-12-11T23:04:04.085Z,26.02
2022-12-11T23:06:31.369Z,26.60
2022-12-11T23:08:59.900Z,26.45
2022-12-11T23:11:36.400Z,26.05
2022-12-11T23:14:08.780Z,25.55
2022-12-11T23:16:36.278Z,26.45
2022-12-11T23:19:03.890Z,25.38
2022-12-11T23:21:31.235Z,26.35
2022-12-11T23:23:59.215Z,26.23
2022-12-11T23:26:28.406Z,25.63
2022-12-11T23:28:56.979Z,26.83
2022-12-11T23:31:26.094Z,27.08
2022-12-11T23:33:53.628Z,27.55
2022-12-11T23:36:21.411Z,27.08
2022-12-11T23:38:54.362Z,27.42
2022-12-11T23:41:22.693Z,26.27
2022-12-11T23:43:50.063Z,27.77
2022-12-11T23:46:20.056Z,27.88
2022-12-11T23:48:48.379Z,26.55
2022-12-11T23:51:17.640Z,28.33
2022-12-11T23:53:45.239Z,29.60
2022-12-11T23:56:15.713Z,29.15
2022-12-11T23:58:43.062Z,28.08
